sensor_id;sensor_type;location;lat;lon;timestamp;P1;durP1;ratioP1;P2;durP2;ratioP2
60979;SDS011;46851;49.160;8.980;2023-04-06T00:01:38;16.90;;;9.50;;
60979;SDS011;46851;49.160;8.980;2023-04-06T00:04:04;14.70;;;9.35;;
60979;SDS011;46851;49.160;8.980;2023-04-06T00:06:31;13.70;;;8.60;;
60979;SDS011;46851;49.160;8.980;2023-04-06T00:08:57;16.92;;;9.70;;
60979;SDS011;46851;49.160;8.980;2023-04-06T00:11:23;72.82;;;26.10;;
60979;SDS011;46851;49.160;8.980;2023-04-06T00:13:50;42.80;;;18.25;;
60979;SDS011;46851;49.160;8.980;2023-04-06T00:16:16;21.08;;;12.50;;
60979;SDS011;46851;49.160;8.980;2023-04-06T00:18:42;32.17;;;14.27;;
60979;SDS011;46851;49.160;8.980;2023-04-06T00:21:08;23.80;;;13.05;;
60979;SDS011;46851;49.160;8.980;2023-04-06T00:23:34;19.45;;;11.55;;
60979;SDS011;46851;49.160;8.980;2023-04-06T00:26:00;19.65;;;11.75;;
60979;SDS011;46851;49.160;8.980;2023-04-06T00:28:26;15.48;;;10.52;;
60979;SDS011;46851;49.160;8.980;2023-04-06T00:30:52;17.70;;;10.65;;
60979;SDS011;46851;49.160;8.980;2023-04-06T00:33:20;20.95;;;10.80;;
60979;SDS011;46851;49.160;8.980;2023-04-06T00:35:46;18.48;;;10.95;;
60979;SDS011;46851;49.160;8.980;2023-04-06T00:38:12;20.60;;;10.90;;
60979;SDS011;46851;49.160;8.980;2023-04-06T00:40:38;17.52;;;10.55;;
60979;SDS011;46851;49.160;8.980;2023-04-06T00:43:07;20.93;;;11.07;;
60979;SDS011;46851;49.160;8.980;2023-04-06T00:45:38;17.15;;;10.35;;
60979;SDS011;46851;49.160;8.980;2023-04-06T00:48:04;17.90;;;10.90;;
60979;SDS011;46851;49.160;8.980;2023-04-06T00:50:30;20.95;;;11.50;;
60979;SDS011;46851;49.160;8.980;2023-04-06T00:52:56;20.98;;;11.93;;
60979;SDS011;46851;49.160;8.980;2023-04-06T00:55:22;22.98;;;11.75;;
60979;SDS011;46851;49.160;8.980;2023-04-06T00:57:48;21.13;;;11.98;;
60979;SDS011;46851;49.160;8.980;2023-04-06T01:00:15;17.73;;;10.80;;
60979;SDS011;46851;49.160;8.980;2023-04-06T01:02:42;19.77;;;10.77;;
60979;SDS011;46851;49.160;8.980;2023-04-06T01:05:09;18.63;;;11.93;;
60979;SDS011;46851;49.160;8.980;2023-04-06T01:07:35;15.05;;;10.75;;
60979;SDS011;46851;49.160;8.980;2023-04-06T01:10:02;20.33;;;12.52;;
60979;SDS011;46851;49.160;8.980;2023-04-06T01:12:28;17.50;;;11.10;;
60979;SDS011;46851;49.160;8.980;2023-04-06T01:14:54;17.42;;;10.85;;
60979;SDS011;46851;49.160;8.980;2023-04-06T01:17:20;18.63;;;10.77;;
60979;SDS011;46851;49.160;8.980;2023-04-06T01:19:46;18.42;;;11.45;;
60979;SDS011;46851;49.160;8.980;2023-04-06T01:22:17;19.73;;;11.63;;
60979;SDS011;46851;49.160;8.980;2023-04-06T01:24:43;21.92;;;11.82;;
60979;SDS011;46851;49.160;8.980;2023-04-06T01:27:10;19.15;;;11.52;;
60979;SDS011;46851;49.160;8.980;2023-04-06T01:29:36;19.15;;;11.48;;
60979;SDS011;46851;49.160;8.980;2023-04-06T01:32:02;18.17;;;10.82;;
60979;SDS011;46851;49.160;8.980;2023-04-06T01:34:28;19.00;;;11.02;;
60979;SDS011;46851;49.160;8.980;2023-04-06T01:36:54;18.63;;;11.63;;
60979;SDS011;46851;49.160;8.980;2023-04-06T01:39:20;16.60;;;11.70;;
60979;SDS011;46851;49.160;8.980;2023-04-06T01:41:46;22.50;;;11.55;;
60979;SDS011;46851;49.160;8.980;2023-04-06T01:44:15;17.83;;;10.93;;
60979;SDS011;46851;49.160;8.980;2023-04-06T01:46:42;17.80;;;11.07;;
60979;SDS011;46851;49.160;8.980;2023-04-06T01:49:07;16.33;;;10.65;;
60979;SDS011;46851;49.160;8.980;2023-04-06T01:51:33;14.70;;;10.38;;
60979;SDS011;46851;49.160;8.980;2023-04-06T01:54:00;19.15;;;11.27;;
60979;SDS011;46851;49.160;8.980;2023-04-06T01:56:26;16.35;;;10.70;;
60979;SDS011;46851;49.160;8.980;2023-04-06T01:58:51;19.98;;;11.48;;
60979;SDS011;46851;49.160;8.980;2023-04-06T02:01:17;18.15;;;10.93;;
60979;SDS011;46851;49.160;8.980;2023-04-06T02:03:43;19.42;;;10.80;;
60979;SDS011;46851;49.160;8.980;2023-04-06T02:06:09;18.95;;;11.88;;
60979;SDS011;46851;49.160;8.980;2023-04-06T02:08:35;17.55;;;11.27;;
60979;SDS011;46851;49.160;8.980;2023-04-06T02:11:01;19.77;;;11.30;;
60979;SDS011;46851;49.160;8.980;2023-04-06T02:13:27;23.35;;;11.93;;
60979;SDS011;46851;49.160;8.980;2023-04-06T02:15:53;14.77;;;10.00;;
60979;SDS011;46851;49.160;8.980;2023-04-06T02:18:20;17.40;;;11.20;;
60979;SDS011;46851;49.160;8.980;2023-04-06T02:20:46;21.60;;;11.73;;
60979;SDS011;46851;49.160;8.980;2023-04-06T02:23:12;20.17;;;12.02;;
60979;SDS011;46851;49.160;8.980;2023-04-06T02:25:38;20.55;;;11.27;;
60979;SDS011;46851;49.160;8.980;2023-04-06T02:28:04;27.45;;;11.43;;
60979;SDS011;46851;49.160;8.980;2023-04-06T02:30:30;21.10;;;11.93;;
60979;SDS011;46851;49.160;8.980;2023-04-06T02:32:57;20.27;;;11.50;;
60979;SDS011;46851;49.160;8.980;2023-04-06T02:35:24;21.23;;;11.65;;
60979;SDS011;46851;49.160;8.980;2023-04-06T02:37:50;19.80;;;11.35;;
60979;SDS011;46851;49.160;8.980;2023-04-06T02:40:16;20.15;;;11.52;;
60979;SDS011;46851;49.160;8.980;2023-04-06T02:42:42;18.77;;;11.63;;
60979;SDS011;46851;49.160;8.980;2023-04-06T02:45:08;19.20;;;11.77;;
60979;SDS011;46851;49.160;8.980;2023-04-06T02:47:34;21.33;;;12.10;;
60979;SDS011;46851;49.160;8.980;2023-04-06T02:50:00;19.90;;;11.88;;
60979;SDS011;46851;49.160;8.980;2023-04-06T02:52:26;17.35;;;11.55;;
60979;SDS011;46851;49.160;8.980;2023-04-06T02:54:52;19.52;;;11.63;;
60979;SDS011;46851;49.160;8.980;2023-04-06T02:57:18;20.48;;;11.82;;
60979;SDS011;46851;49.160;8.980;2023-04-06T02:59:44;16.40;;;11.43;;
60979;SDS011;46851;49.160;8.980;2023-04-06T03:02:10;19.80;;;12.02;;
60979;SDS011;46851;49.160;8.980;2023-04-06T03:04:36;18.58;;;12.07;;
60979;SDS011;46851;49.160;8.980;2023-04-06T03:07:02;21.63;;;12.35;;
60979;SDS011;46851;49.160;8.980;2023-04-06T03:09:28;23.23;;;12.68;;
60979;SDS011;46851;49.160;8.980;2023-04-06T03:11:54;18.75;;;11.93;;
60979;SDS011;46851;49.160;8.980;2023-04-06T03:14:20;20.55;;;11.95;;
60979;SDS011;46851;49.160;8.980;2023-04-06T03:16:47;20.45;;;12.45;;
60979;SDS011;46851;49.160;8.980;2023-04-06T03:19:13;23.73;;;13.80;;
60979;SDS011;46851;49.160;8.980;2023-04-06T03:21:40;27.27;;;15.68;;
60979;SDS011;46851;49.160;8.980;2023-04-06T03:24:06;23.20;;;13.95;;
60979;SDS011;46851;49.160;8.980;2023-04-06T03:26:32;22.65;;;12.98;;
60979;SDS011;46851;49.160;8.980;2023-04-06T03:28:58;24.15;;;13.70;;
60979;SDS011;46851;49.160;8.980;2023-04-06T03:31:25;21.92;;;13.02;;
60979;SDS011;46851;49.160;8.980;2023-04-06T03:33:51;27.70;;;15.20;;
60979;SDS011;46851;49.160;8.980;2023-04-06T03:36:17;25.48;;;13.73;;
60979;SDS011;46851;49.160;8.980;2023-04-06T03:38:43;22.30;;;13.82;;
60979;SDS011;46851;49.160;8.980;2023-04-06T03:41:09;21.85;;;13.00;;
60979;SDS011;46851;49.160;8.980;2023-04-06T03:43:35;25.02;;;13.82;;
60979;SDS011;46851;49.160;8.980;2023-04-06T03:46:01;21.20;;;12.15;;
60979;SDS011;46851;49.160;8.980;2023-04-06T03:48:27;34.38;;;14.32;;
60979;SDS011;46851;49.160;8.980;2023-04-06T03:50:53;19.90;;;13.25;;
60979;SDS011;46851;49.160;8.980;2023-04-06T03:53:20;21.35;;;12.82;;
60979;SDS011;46851;49.160;8.980;2023-04-06T03:55:46;24.40;;;13.48;;
60979;SDS011;46851;49.160;8.980;2023-04-06T03:58:12;24.58;;;13.30;;
60979;SDS011;46851;49.160;8.980;2023-04-06T04:00:37;21.75;;;12.75;;
60979;SDS011;46851;49.160;8.980;2023-04-06T04:03:04;21.38;;;13.30;;
60979;SDS011;46851;49.160;8.980;2023-04-06T04:05:30;21.33;;;12.68;;
60979;SDS011;46851;49.160;8.980;2023-04-06T04:07:56;21.73;;;12.77;;
60979;SDS011;46851;49.160;8.980;2023-04-06T04:10:22;24.20;;;13.30;;
60979;SDS011;46851;49.160;8.980;2023-04-06T04:12:48;29.20;;;13.38;;
60979;SDS011;46851;49.160;8.980;2023-04-06T04:15:14;27.30;;;13.77;;
60979;SDS011;46851;49.160;8.980;2023-04-06T04:17:41;24.55;;;14.43;;
60979;SDS011;46851;49.160;8.980;2023-04-06T04:20:11;21.20;;;13.23;;
60979;SDS011;46851;49.160;8.980;2023-04-06T04:22:37;27.45;;;13.45;;
60979;SDS011;46851;49.160;8.980;2023-04-06T04:25:05;32.50;;;13.50;;
60979;SDS011;46851;49.160;8.980;2023-04-06T04:27:31;22.90;;;13.52;;
60979;SDS011;46851;49.160;8.980;2023-04-06T04:29:57;23.38;;;13.55;;
60979;SDS011;46851;49.160;8.980;2023-04-06T04:32:23;24.33;;;13.10;;
60979;SDS011;46851;49.160;8.980;2023-04-06T04:34:52;27.88;;;14.35;;
60979;SDS011;46851;49.160;8.980;2023-04-06T04:37:18;23.40;;;13.63;;
60979;SDS011;46851;49.160;8.980;2023-04-06T04:39:44;25.45;;;13.68;;
60979;SDS011;46851;49.160;8.980;2023-04-06T04:42:10;24.50;;;13.68;;
60979;SDS011;46851;49.160;8.980;2023-04-06T04:44:36;26.98;;;14.15;;
60979;SDS011;46851;49.160;8.980;2023-04-06T04:47:02;26.13;;;13.90;;
60979;SDS011;46851;49.160;8.980;2023-04-06T04:49:28;26.63;;;14.43;;
60979;SDS011;46851;49.160;8.980;2023-04-06T04:51:55;27.70;;;14.82;;
60979;SDS011;46851;49.160;8.980;2023-04-06T04:54:21;24.27;;;14.38;;
60979;SDS011;46851;49.160;8.980;2023-04-06T04:56:47;28.60;;;14.35;;
60979;SDS011;46851;49.160;8.980;2023-04-06T04:59:13;22.42;;;13.15;;
60979;SDS011;46851;49.160;8.980;2023-04-06T05:01:39;21.67;;;13.38;;
60979;SDS011;46851;49.160;8.980;2023-04-06T05:04:05;23.10;;;14.10;;
60979;SDS011;46851;49.160;8.980;2023-04-06T05:06:31;24.65;;;13.40;;
60979;SDS011;46851;49.160;8.980;2023-04-06T05:08:57;28.88;;;14.60;;
60979;SDS011;46851;49.160;8.980;2023-04-06T05:11:23;27.63;;;14.60;;
60979;SDS011;46851;49.160;8.980;2023-04-06T05:13:50;25.67;;;14.63;;
60979;SDS011;46851;49.160;8.980;2023-04-06T05:16:16;23.80;;;14.40;;
60979;SDS011;46851;49.160;8.980;2023-04-06T05:18:42;30.33;;;15.48;;
60979;SDS011;46851;49.160;8.980;2023-04-06T05:21:08;20.27;;;13.02;;
60979;SDS011;46851;49.160;8.980;2023-04-06T05:23:35;25.63;;;14.50;;
60979;SDS011;46851;49.160;8.980;2023-04-06T05:26:01;23.05;;;13.02;;
60979;SDS011;46851;49.160;8.980;2023-04-06T05:28:27;25.52;;;12.45;;
60979;SDS011;46851;49.160;8.980;2023-04-06T05:30:53;26.27;;;12.88;;
60979;SDS011;46851;49.160;8.980;2023-04-06T05:33:19;21.15;;;12.35;;
60979;SDS011;46851;49.160;8.980;2023-04-06T05:35:45;18.15;;;12.10;;
60979;SDS011;46851;49.160;8.980;2023-04-06T05:38:11;25.20;;;12.73;;
60979;SDS011;46851;49.160;8.980;2023-04-06T05:40:37;20.38;;;12.98;;
60979;SDS011;46851;49.160;8.980;2023-04-06T05:43:06;26.25;;;13.15;;
60979;SDS011;46851;49.160;8.980;2023-04-06T05:45:32;26.95;;;12.45;;
60979;SDS011;46851;49.160;8.980;2023-04-06T05:47:59;19.52;;;14.13;;
60979;SDS011;46851;49.160;8.980;2023-04-06T05:50:26;24.33;;;14.82;;
60979;SDS011;46851;49.160;8.980;2023-04-06T05:52:52;23.77;;;13.30;;
60979;SDS011;46851;49.160;8.980;2023-04-06T05:55:18;21.77;;;12.48;;
60979;SDS011;46851;49.160;8.980;2023-04-06T05:57:44;23.67;;;12.85;;
60979;SDS011;46851;49.160;8.980;2023-04-06T06:00:10;26.52;;;13.07;;
60979;SDS011;46851;49.160;8.980;2023-04-06T06:02:36;27.48;;;12.73;;
60979;SDS011;46851;49.160;8.980;2023-04-06T06:05:02;18.27;;;12.45;;
60979;SDS011;46851;49.160;8.980;2023-04-06T06:07:28;22.77;;;12.98;;
60979;SDS011;46851;49.160;8.980;2023-04-06T06:09:57;27.50;;;11.50;;
60979;SDS011;46851;49.160;8.980;2023-04-06T06:12:24;26.53;;;12.43;;
60979;SDS011;46851;49.160;8.980;2023-04-06T06:14:50;23.38;;;12.30;;
60979;SDS011;46851;49.160;8.980;2023-04-06T06:17:16;20.20;;;11.15;;
60979;SDS011;46851;49.160;8.980;2023-04-06T06:19:42;25.83;;;11.38;;
60979;SDS011;46851;49.160;8.980;2023-04-06T06:22:08;16.90;;;9.70;;
60979;SDS011;46851;49.160;8.980;2023-04-06T06:24:34;19.13;;;11.13;;
60979;SDS011;46851;49.160;8.980;2023-04-06T06:27:00;20.30;;;10.85;;
60979;SDS011;46851;49.160;8.980;2023-04-06T06:29:26;20.40;;;10.60;;
60979;SDS011;46851;49.160;8.980;2023-04-06T06:31:52;14.80;;;9.95;;
60979;SDS011;46851;49.160;8.980;2023-04-06T06:34:18;28.27;;;10.23;;
60979;SDS011;46851;49.160;8.980;2023-04-06T06:36:44;20.83;;;9.90;;
60979;SDS011;46851;49.160;8.980;2023-04-06T06:39:10;17.58;;;10.13;;
60979;SDS011;46851;49.160;8.980;2023-04-06T06:41:36;15.52;;;9.65;;
60979;SDS011;46851;49.160;8.980;2023-04-06T06:44:02;15.82;;;10.10;;
60979;SDS011;46851;49.160;8.980;2023-04-06T06:46:28;14.25;;;9.73;;
60979;SDS011;46851;49.160;8.980;2023-04-06T06:48:54;20.02;;;10.55;;
60979;SDS011;46851;49.160;8.980;2023-04-06T06:51:20;14.88;;;10.05;;
60979;SDS011;46851;49.160;8.980;2023-04-06T06:53:47;16.83;;;10.25;;
60979;SDS011;46851;49.160;8.980;2023-04-06T06:56:13;14.65;;;10.55;;
60979;SDS011;46851;49.160;8.980;2023-04-06T06:58:39;16.23;;;10.20;;
60979;SDS011;46851;49.160;8.980;2023-04-06T07:01:05;15.45;;;10.27;;
60979;SDS011;46851;49.160;8.980;2023-04-06T07:03:31;20.13;;;10.60;;
60979;SDS011;46851;49.160;8.980;2023-04-06T07:05:57;25.33;;;10.93;;
60979;SDS011;46851;49.160;8.980;2023-04-06T07:08:25;40.03;;;11.60;;
60979;SDS011;46851;49.160;8.980;2023-04-06T07:10:51;21.65;;;10.90;;
60979;SDS011;46851;49.160;8.980;2023-04-06T07:13:17;18.40;;;9.55;;
60979;SDS011;46851;49.160;8.980;2023-04-06T07:15:47;16.75;;;10.63;;
60979;SDS011;46851;49.160;8.980;2023-04-06T07:18:13;20.33;;;10.48;;
60979;SDS011;46851;49.160;8.980;2023-04-06T07:20:39;17.70;;;9.98;;
60979;SDS011;46851;49.160;8.980;2023-04-06T07:23:05;15.98;;;10.35;;
60979;SDS011;46851;49.160;8.980;2023-04-06T07:25:32;18.35;;;10.50;;
60979;SDS011;46851;49.160;8.980;2023-04-06T07:27:58;20.67;;;10.63;;
60979;SDS011;46851;49.160;8.980;2023-04-06T07:30:24;17.45;;;10.95;;
60979;SDS011;46851;49.160;8.980;2023-04-06T07:32:52;18.88;;;10.32;;
60979;SDS011;46851;49.160;8.980;2023-04-06T07:35:20;16.80;;;9.95;;
60979;SDS011;46851;49.160;8.980;2023-04-06T07:37:46;16.40;;;10.32;;
60979;SDS011;46851;49.160;8.980;2023-04-06T07:40:12;16.55;;;10.32;;
60979;SDS011;46851;49.160;8.980;2023-04-06T07:42:38;21.95;;;10.55;;
60979;SDS011;46851;49.160;8.980;2023-04-06T07:45:05;24.30;;;11.30;;
60979;SDS011;46851;49.160;8.980;2023-04-06T07:47:31;15.23;;;10.70;;
60979;SDS011;46851;49.160;8.980;2023-04-06T07:49:57;19.67;;;10.98;;
60979;SDS011;46851;49.160;8.980;2023-04-06T07:52:23;20.80;;;10.40;;
60979;SDS011;46851;49.160;8.980;2023-04-06T07:54:49;15.27;;;10.63;;
60979;SDS011;46851;49.160;8.980;2023-04-06T07:57:15;25.10;;;15.48;;
60979;SDS011;46851;49.160;8.980;2023-04-06T07:59:41;16.73;;;10.77;;
60979;SDS011;46851;49.160;8.980;2023-04-06T08:02:07;29.33;;;11.23;;
60979;SDS011;46851;49.160;8.980;2023-04-06T08:04:35;20.48;;;10.88;;
60979;SDS011;46851;49.160;8.980;2023-04-06T08:07:01;15.20;;;9.57;;
60979;SDS011;46851;49.160;8.980;2023-04-06T08:09:27;20.02;;;10.30;;
60979;SDS011;46851;49.160;8.980;2023-04-06T08:11:53;15.27;;;9.75;;
60979;SDS011;46851;49.160;8.980;2023-04-06T08:14:19;14.40;;;9.93;;
60979;SDS011;46851;49.160;8.980;2023-04-06T08:16:45;23.85;;;10.00;;
60979;SDS011;46851;49.160;8.980;2023-04-06T08:19:11;21.92;;;10.18;;
60979;SDS011;46851;49.160;8.980;2023-04-06T08:21:37;15.63;;;9.90;;
60979;SDS011;46851;49.160;8.980;2023-04-06T08:24:05;13.98;;;9.52;;
60979;SDS011;46851;49.160;8.980;2023-04-06T08:26:31;15.73;;;9.43;;
60979;SDS011;46851;49.160;8.980;2023-04-06T08:28:57;17.85;;;9.90;;
60979;SDS011;46851;49.160;8.980;2023-04-06T08:31:23;10.38;;;7.82;;
60979;SDS011;46851;49.160;8.980;2023-04-06T08:33:49;11.25;;;8.02;;
60979;SDS011;46851;49.160;8.980;2023-04-06T08:36:15;11.68;;;7.45;;
60979;SDS011;46851;49.160;8.980;2023-04-06T08:38:45;11.30;;;7.95;;
60979;SDS011;46851;49.160;8.980;2023-04-06T08:41:11;11.20;;;8.52;;
60979;SDS011;46851;49.160;8.980;2023-04-06T08:43:42;13.85;;;7.82;;
60979;SDS011;46851;49.160;8.980;2023-04-06T08:46:08;10.68;;;7.85;;
60979;SDS011;46851;49.160;8.980;2023-04-06T08:48:35;12.32;;;8.35;;
60979;SDS011;46851;49.160;8.980;2023-04-06T08:51:01;11.55;;;7.78;;
60979;SDS011;46851;49.160;8.980;2023-04-06T08:53:28;14.18;;;8.40;;
60979;SDS011;46851;49.160;8.980;2023-04-06T08:55:54;8.75;;;7.78;;
60979;SDS011;46851;49.160;8.980;2023-04-06T08:58:21;16.70;;;7.65;;
60979;SDS011;46851;49.160;8.980;2023-04-06T09:00:48;15.95;;;7.95;;
60979;SDS011;46851;49.160;8.980;2023-04-06T09:03:14;12.45;;;8.18;;
60979;SDS011;46851;49.160;8.980;2023-04-06T09:05:40;13.30;;;7.85;;
60979;SDS011;46851;49.160;8.980;2023-04-06T09:08:07;12.23;;;7.90;;
60979;SDS011;46851;49.160;8.980;2023-04-06T09:10:40;31.90;;;9.48;;
60979;SDS011;46851;49.160;8.980;2023-04-06T09:13:06;13.90;;;8.38;;
60979;SDS011;46851;49.160;8.980;2023-04-06T09:15:33;10.20;;;7.55;;
60979;SDS011;46851;49.160;8.980;2023-04-06T09:17:59;11.52;;;7.72;;
60979;SDS011;46851;49.160;8.980;2023-04-06T09:20:25;11.85;;;8.07;;
60979;SDS011;46851;49.160;8.980;2023-04-06T09:22:53;13.30;;;8.60;;
60979;SDS011;46851;49.160;8.980;2023-04-06T09:25:20;15.45;;;8.20;;
60979;SDS011;46851;49.160;8.980;2023-04-06T09:27:47;17.80;;;8.50;;
60979;SDS011;46851;49.160;8.980;2023-04-06T09:30:14;14.27;;;8.48;;
60979;SDS011;46851;49.160;8.980;2023-04-06T09:33:21;12.93;;;8.50;;
60979;SDS011;46851;49.160;8.980;2023-04-06T09:35:34;11.75;;;8.73;;
60979;SDS011;46851;49.160;8.980;2023-04-06T09:38:09;14.57;;;8.27;;
60979;SDS011;46851;49.160;8.980;2023-04-06T09:40:36;12.30;;;7.68;;
60979;SDS011;46851;49.160;8.980;2023-04-06T09:43:02;10.50;;;7.53;;
60979;SDS011;46851;49.160;8.980;2023-04-06T09:45:31;10.75;;;7.70;;
60979;SDS011;46851;49.160;8.980;2023-04-06T09:47:58;9.27;;;7.30;;
60979;SDS011;46851;49.160;8.980;2023-04-06T09:50:24;12.82;;;8.00;;
60979;SDS011;46851;49.160;8.980;2023-04-06T09:52:51;12.43;;;7.63;;
60979;SDS011;46851;49.160;8.980;2023-04-06T09:55:24;8.85;;;7.40;;
60979;SDS011;46851;49.160;8.980;2023-04-06T10:00:23;10.02;;;7.07;;
60979;SDS011;46851;49.160;8.980;2023-04-06T10:05:22;10.73;;;7.18;;
60979;SDS011;46851;49.160;8.980;2023-04-06T10:07:52;9.98;;;7.20;;
60979;SDS011;46851;49.160;8.980;2023-04-06T10:10:19;10.75;;;7.57;;
60979;SDS011;46851;49.160;8.980;2023-04-06T10:12:45;11.27;;;7.50;;
60979;SDS011;46851;49.160;8.980;2023-04-06T10:15:12;12.05;;;8.23;;
60979;SDS011;46851;49.160;8.980;2023-04-06T10:17:38;9.80;;;7.30;;
60979;SDS011;46851;49.160;8.980;2023-04-06T10:20:09;8.20;;;6.40;;
60979;SDS011;46851;49.160;8.980;2023-04-06T10:25:02;9.40;;;6.97;;
60979;SDS011;46851;49.160;8.980;2023-04-06T10:27:28;10.77;;;7.03;;
60979;SDS011;46851;49.160;8.980;2023-04-06T10:29:54;8.65;;;6.80;;
60979;SDS011;46851;49.160;8.980;2023-04-06T10:32:35;9.88;;;6.32;;
60979;SDS011;46851;49.160;8.980;2023-04-06T10:35:08;10.70;;;6.35;;
60979;SDS011;46851;49.160;8.980;2023-04-06T10:37:51;11.32;;;7.15;;
60979;SDS011;46851;49.160;8.980;2023-04-06T10:40:18;8.10;;;6.78;;
60979;SDS011;46851;49.160;8.980;2023-04-06T10:42:44;12.20;;;7.40;;
60979;SDS011;46851;49.160;8.980;2023-04-06T10:45:26;7.93;;;6.85;;
60979;SDS011;46851;49.160;8.980;2023-04-06T10:47:56;10.02;;;6.75;;
60979;SDS011;46851;49.160;8.980;2023-04-06T10:50:22;11.52;;;7.03;;
60979;SDS011;46851;49.160;8.980;2023-04-06T10:53:03;11.80;;;7.13;;
60979;SDS011;46851;49.160;8.980;2023-04-06T10:55:29;13.70;;;7.30;;
60979;SDS011;46851;49.160;8.980;2023-04-06T10:57:56;16.50;;;9.00;;
60979;SDS011;46851;49.160;8.980;2023-04-06T11:00:22;14.55;;;8.15;;
60979;SDS011;46851;49.160;8.980;2023-04-06T11:02:48;12.05;;;7.95;;
60979;SDS011;46851;49.160;8.980;2023-04-06T11:05:14;17.30;;;7.93;;
60979;SDS011;46851;49.160;8.980;2023-04-06T11:07:41;15.25;;;7.95;;
60979;SDS011;46851;49.160;8.980;2023-04-06T11:10:08;13.30;;;8.13;;
60979;SDS011;46851;49.160;8.980;2023-04-06T11:12:34;13.00;;;8.40;;
60979;SDS011;46851;49.160;8.980;2023-04-06T11:15:02;19.58;;;8.00;;
60979;SDS011;46851;49.160;8.980;2023-04-06T11:17:32;15.02;;;8.10;;
60979;SDS011;46851;49.160;8.980;2023-04-06T11:19:58;12.00;;;7.38;;
60979;SDS011;46851;49.160;8.980;2023-04-06T11:22:24;14.80;;;7.68;;
60979;SDS011;46851;49.160;8.980;2023-04-06T11:24:51;12.10;;;7.65;;
60979;SDS011;46851;49.160;8.980;2023-04-06T11:27:17;11.90;;;7.53;;
60979;SDS011;46851;49.160;8.980;2023-04-06T11:29:43;15.65;;;8.18;;
60979;SDS011;46851;49.160;8.980;2023-04-06T11:32:19;11.80;;;7.68;;
60979;SDS011;46851;49.160;8.980;2023-04-06T11:34:46;13.30;;;8.40;;
60979;SDS011;46851;49.160;8.980;2023-04-06T11:37:13;13.38;;;7.90;;
60979;SDS011;46851;49.160;8.980;2023-04-06T11:39:40;12.73;;;7.97;;
60979;SDS011;46851;49.160;8.980;2023-04-06T11:42:06;16.92;;;8.68;;
60979;SDS011;46851;49.160;8.980;2023-04-06T11:44:36;14.00;;;8.15;;
60979;SDS011;46851;49.160;8.980;2023-04-06T11:47:04;22.17;;;8.40;;
60979;SDS011;46851;49.160;8.980;2023-04-06T11:49:31;14.60;;;7.22;;
60979;SDS011;46851;49.160;8.980;2023-04-06T11:51:58;15.25;;;8.73;;
60979;SDS011;46851;49.160;8.980;2023-04-06T11:54:37;16.65;;;8.10;;
60979;SDS011;46851;49.160;8.980;2023-04-06T11:57:03;15.93;;;7.33;;
60979;SDS011;46851;49.160;8.980;2023-04-06T11:59:30;12.52;;;7.50;;
60979;SDS011;46851;49.160;8.980;2023-04-06T12:01:59;13.30;;;7.88;;
60979;SDS011;46851;49.160;8.980;2023-04-06T12:04:26;14.98;;;7.22;;
60979;SDS011;46851;49.160;8.980;2023-04-06T12:06:52;13.85;;;7.80;;
60979;SDS011;46851;49.160;8.980;2023-04-06T12:09:18;12.98;;;7.60;;
60979;SDS011;46851;49.160;8.980;2023-04-06T12:11:44;51.30;;;10.75;;
60979;SDS011;46851;49.160;8.980;2023-04-06T12:14:11;86.57;;;14.25;;
60979;SDS011;46851;49.160;8.980;2023-04-06T12:16:37;81.97;;;15.25;;
60979;SDS011;46851;49.160;8.980;2023-04-06T12:19:03;88.30;;;12.77;;
60979;SDS011;46851;49.160;8.980;2023-04-06T12:21:31;30.73;;;8.02;;
60979;SDS011;46851;49.160;8.980;2023-04-06T12:23:58;15.50;;;7.72;;
60979;SDS011;46851;49.160;8.980;2023-04-06T12:26:24;10.75;;;7.15;;
60979;SDS011;46851;49.160;8.980;2023-04-06T12:28:51;70.25;;;10.90;;
60979;SDS011;46851;49.160;8.980;2023-04-06T12:31:17;23.15;;;8.38;;
60979;SDS011;46851;49.160;8.980;2023-04-06T12:33:46;34.35;;;9.23;;
60979;SDS011;46851;49.160;8.980;2023-04-06T12:36:12;17.27;;;8.18;;
60979;SDS011;46851;49.160;8.980;2023-04-06T12:38:39;38.75;;;8.23;;
60979;SDS011;46851;49.160;8.980;2023-04-06T12:41:06;15.80;;;7.03;;
60979;SDS011;46851;49.160;8.980;2023-04-06T12:43:32;11.90;;;7.07;;
60979;SDS011;46851;49.160;8.980;2023-04-06T12:45:58;74.63;;;10.68;;
60979;SDS011;46851;49.160;8.980;2023-04-06T12:48:24;13.18;;;7.30;;
60979;SDS011;46851;49.160;8.980;2023-04-06T12:50:58;14.70;;;7.28;;
60979;SDS011;46851;49.160;8.980;2023-04-06T12:53:25;16.63;;;7.18;;
60979;SDS011;46851;49.160;8.980;2023-04-06T12:55:51;12.05;;;7.22;;
60979;SDS011;46851;49.160;8.980;2023-04-06T12:58:18;15.63;;;6.97;;
60979;SDS011;46851;49.160;8.980;2023-04-06T13:00:44;64.65;;;11.10;;
60979;SDS011;46851;49.160;8.980;2023-04-06T13:03:10;15.45;;;7.97;;
60979;SDS011;46851;49.160;8.980;2023-04-06T13:05:43;14.32;;;7.07;;
60979;SDS011;46851;49.160;8.980;2023-04-06T13:08:09;12.25;;;6.93;;
60979;SDS011;46851;49.160;8.980;2023-04-06T13:10:35;12.20;;;7.90;;
60979;SDS011;46851;49.160;8.980;2023-04-06T13:13:01;12.00;;;7.20;;
60979;SDS011;46851;49.160;8.980;2023-04-06T13:15:28;16.08;;;7.70;;
60979;SDS011;46851;49.160;8.980;2023-04-06T13:17:54;15.32;;;7.07;;
60979;SDS011;46851;49.160;8.980;2023-04-06T13:20:20;26.15;;;8.32;;
60979;SDS011;46851;49.160;8.980;2023-04-06T13:22:46;19.08;;;8.40;;
60979;SDS011;46851;49.160;8.980;2023-04-06T13:25:12;19.05;;;6.95;;
60979;SDS011;46851;49.160;8.980;2023-04-06T13:27:38;12.88;;;7.13;;
60979;SDS011;46851;49.160;8.980;2023-04-06T13:30:04;8.82;;;6.60;;
60979;SDS011;46851;49.160;8.980;2023-04-06T13:32:30;14.20;;;6.55;;
60979;SDS011;46851;49.160;8.980;2023-04-06T13:34:57;12.82;;;6.85;;
60979;SDS011;46851;49.160;8.980;2023-04-06T13:37:23;12.45;;;6.90;;
60979;SDS011;46851;49.160;8.980;2023-04-06T13:39:49;16.88;;;6.88;;
60979;SDS011;46851;49.160;8.980;2023-04-06T13:42:15;11.63;;;6.72;;
60979;SDS011;46851;49.160;8.980;2023-04-06T13:44:41;17.73;;;9.63;;
60979;SDS011;46851;49.160;8.980;2023-04-06T13:47:07;14.98;;;7.80;;
60979;SDS011;46851;49.160;8.980;2023-04-06T13:49:33;12.25;;;7.28;;
60979;SDS011;46851;49.160;8.980;2023-04-06T13:52:00;23.08;;;7.88;;
60979;SDS011;46851;49.160;8.980;2023-04-06T13:54:26;27.27;;;8.38;;
60979;SDS011;46851;49.160;8.980;2023-04-06T13:56:52;16.73;;;7.25;;
60979;SDS011;46851;49.160;8.980;2023-04-06T13:59:18;25.40;;;8.63;;
60979;SDS011;46851;49.160;8.980;2023-04-06T14:01:44;11.05;;;6.65;;
60979;SDS011;46851;49.160;8.980;2023-04-06T14:04:10;12.15;;;7.43;;
60979;SDS011;46851;49.160;8.980;2023-04-06T14:06:36;12.75;;;6.78;;
60979;SDS011;46851;49.160;8.980;2023-04-06T14:09:02;13.77;;;6.90;;
60979;SDS011;46851;49.160;8.980;2023-04-06T14:11:29;10.73;;;6.80;;
60979;SDS011;46851;49.160;8.980;2023-04-06T14:13:55;11.60;;;7.18;;
60979;SDS011;46851;49.160;8.980;2023-04-06T14:16:22;23.65;;;10.35;;
60979;SDS011;46851;49.160;8.980;2023-04-06T14:18:49;14.10;;;7.25;;
60979;SDS011;46851;49.160;8.980;2023-04-06T14:21:15;12.52;;;7.32;;
60979;SDS011;46851;49.160;8.980;2023-04-06T14:23:41;15.65;;;7.18;;
60979;SDS011;46851;49.160;8.980;2023-04-06T14:26:08;15.45;;;7.38;;
60979;SDS011;46851;49.160;8.980;2023-04-06T14:28:34;10.55;;;6.82;;
60979;SDS011;46851;49.160;8.980;2023-04-06T14:31:01;15.13;;;7.93;;
60979;SDS011;46851;49.160;8.980;2023-04-06T14:33:30;11.70;;;8.00;;